Time;durP1;ratioP1;P1;durP2;ratioP2;P2;SDS_P1;SDS_P2;PMS_P1;PMS_P2;Temp;Humidity;BMP_temperature;BMP_pressure;BME280_temperature;BME280_humidity;BME280_pressure;Samples;Min_cycle;Max_cycle;Signal;HPM_P1;HPM_P2
2022/10/26 00:02:26;;;;;;;13.40;3.90;;;;;;;11.62;98.62;99813.23;106078;1285;69002;-73
2022/10/26 00:05:14;;;;;;;11.00;4.00;;;;;;;11.66;98.53;99814.86;106074;1287;72381;-73
2022/10/26 00:08:03;;;;;;;11.90;3.70;;;;;;;11.67;98.46;99818.44;105904;1288;59418;-73
2022/10/26 00:10:51;;;;;;;13.60;3.60;;;;;;;11.69;98.47;99818.30;105992;1289;58982;-74
2022/10/26 00:13:40;;;;;;;10.10;3.60;;;;;;;11.71;98.24;99821.14;106064;1287;73136;-74
2022/10/26 00:16:28;;;;;;;9.90;3.10;;;;;;;11.71;98.20;99822.75;106085;1289;68602;-73
2022/10/26 00:19:16;;;;;;;10.20;3.60;;;;;;;11.71;98.22;99826.31;106048;1289;72442;-72
2022/10/26 00:22:04;;;;;;;11.60;3.40;;;;;;;11.71;98.00;99821.86;105949;1284;57878;-72
2022/10/26 00:24:52;;;;;;;9.80;3.60;;;;;;;11.71;97.92;99822.50;106067;1292;61355;-73
2022/10/26 00:27:40;;;;;;;9.40;3.70;;;;;;;11.72;97.79;99821.91;106056;1289;72395;-72
2022/10/26 00:30:27;;;;;;;9.10;3.20;;;;;;;11.72;97.67;99827.64;106061;1289;67551;-73
2022/10/26 00:33:16;;;;;;;11.50;4.10;;;;;;;11.71;97.65;99823.45;106096;1289;70999;-74
2022/10/26 00:36:04;;;;;;;10.60;4.00;;;;;;;11.71;97.71;99826.27;105928;1291;59342;-73
2022/10/26 00:38:54;;;;;;;12.00;4.10;;;;;;;11.73;97.70;99827.89;106087;1289;57660;-73
2022/10/26 00:41:42;;;;;;;12.80;4.30;;;;;;;11.73;97.59;99832.36;106066;1281;73509;-73
2022/10/26 00:44:48;;;;;;;10.90;4.00;;;;;;;11.72;97.44;99835.64;106088;1289;68619;-73
2022/10/26 00:47:47;;;;;;;11.10;3.70;;;;;;;11.73;97.26;99842.13;106077;1289;70976;-73
2022/10/26 00:50:43;;;;;;;13.90;4.10;;;;;;;11.75;97.52;99844.44;105356;1288;1002204;-73
2022/10/26 00:53:32;;;;;;;10.30;3.60;;;;;;;11.76;97.33;99841.50;105971;1292;61164;-74
2022/10/26 00:56:20;;;;;;;10.80;4.20;;;;;;;11.75;97.30;99841.94;105953;1289;73332;-74
2022/10/26 00:59:11;;;;;;;11.80;4.10;;;;;;;11.75;97.31;99838.23;106098;1289;68772;-72
2022/10/26 01:01:59;;;;;;;11.30;3.60;;;;;;;11.73;97.05;99837.49;105945;1291;73428;-73
2022/10/26 01:04:48;;;;;;;10.90;3.80;;;;;;;11.71;97.02;99841.76;106088;1289;59433;-73
2022/10/26 01:07:36;;;;;;;11.00;3.80;;;;;;;11.68;97.44;99844.15;106064;1289;61156;-74
2022/10/26 01:10:27;;;;;;;9.30;3.80;;;;;;;11.66;97.66;99845.54;106062;1288;73491;-73
2022/10/26 01:13:16;;;;;;;13.00;4.20;;;;;;;11.65;97.63;99849.88;105976;1290;68607;-74
2022/10/26 01:16:49;;;;;;;9.80;3.80;;;;;;;11.65;97.76;99847.30;106059;1284;72538;-74
2022/10/26 01:20:01;;;;;;;10.30;3.90;;;;;;;11.66;97.84;99843.63;106000;1281;57912;-74
2022/10/26 01:22:49;;;;;;;13.70;4.10;;;;;;;11.66;97.92;99844.53;106103;1288;61191;-75
2022/10/26 01:25:54;;;;;;;11.40;4.40;;;;;;;11.66;97.80;99836.50;106092;1288;71159;-74
2022/10/26 01:29:33;;;;;;;13.90;3.90;;;;;;;11.63;97.92;99836.73;106058;1289;68946;-74
2022/10/26 01:32:27;;;;;;;10.10;4.50;;;;;;;11.57;98.01;99843.12;105551;1297;71003;-73
2022/10/26 01:35:26;;;;;;;11.40;4.10;;;;;;;11.55;98.10;99844.15;105551;1296;59526;-73
2022/10/26 01:38:52;;;;;;;14.70;6.30;;;;;;;11.54;98.27;99842.11;105505;1296;61149;-73
2022/10/26 01:41:52;;;;;;;16.40;4.70;;;;;;;11.54;98.31;99844.97;105572;1296;73110;-73
2022/10/26 01:44:46;;;;;;;11.20;4.50;;;;;;;11.55;98.30;99846.81;105565;1296;68959;-73
2022/10/26 01:47:36;;;;;;;14.20;4.60;;;;;;;11.57;98.44;99842.41;105496;1290;72959;-74
2022/10/26 01:50:26;;;;;;;13.40;4.20;;;;;;;11.60;98.32;99842.18;105501;1297;58863;-75
2022/10/26 01:53:15;;;;;;;11.00;3.90;;;;;;;11.61;98.22;99837.63;105503;1291;58683;-75
2022/10/26 01:56:03;;;;;;;13.00;4.30;;;;;;;11.62;98.20;99840.63;105499;1299;73437;-74
2022/10/26 01:59:18;;;;;;;12.80;4.70;;;;;;;11.60;98.08;99841.08;105589;1294;67537;-74
2022/10/26 02:02:53;;;;;;;10.20;4.40;;;;;;;11.58;98.02;99837.87;105571;1298;71025;-74
2022/10/26 02:05:56;;;;;;;12.40;4.50;;;;;;;11.57;98.23;99842.04;105543;1296;57912;-75
2022/10/26 02:09:26;;;;;;;16.00;5.70;;;;;;;11.56;97.95;99844.95;105747;1292;58724;-74
2022/10/26 02:12:43;;;;;;;13.00;5.80;;;;;;;11.56;98.15;99841.45;105981;1292;71098;-73
2022/10/26 02:15:46;;;;;;;16.10;5.30;;;;;;;11.54;98.17;99840.52;106004;1288;68603;-74
2022/10/26 02:18:42;;;;;;;14.10;5.40;;;;;;;11.52;98.10;99839.26;106040;1287;73851;-75
2022/10/26 02:21:43;;;;;;;10.20;4.60;;;;;;;11.51;98.23;99843.81;106047;1289;60627;-75
2022/10/26 02:24:33;;;;;;;13.50;4.70;;;;;;;11.49;98.55;99845.55;105970;1284;58964;-74
2022/10/26 02:27:26;;;;;;;11.50;4.70;;;;;;;11.49;98.65;99847.91;105959;1290;70968;-75
2022/10/26 02:30:14;;;;;;;13.40;5.30;;;;;;;11.47;98.63;99845.38;106079;1289;67641;-74
2022/10/26 02:33:05;;;;;;;15.90;4.00;;;;;;;11.47;98.70;99856.75;106082;1284;72540;-75
2022/10/26 02:35:54;;;;;;;14.30;4.80;;;;;;;11.49;98.94;99854.97;106043;1287;60391;-73
2022/10/26 02:38:45;;;;;;;13.80;5.00;;;;;;;11.51;98.94;99848.24;106055;1287;61221;-74
2022/10/26 02:41:34;;;;;;;11.40;4.70;;;;;;;11.52;98.76;99852.75;105952;1291;71014;-74
2022/10/26 02:44:30;;;;;;;13.20;4.70;;;;;;;11.53;98.65;99854.33;105914;1292;66572;-73
2022/10/26 02:47:19;;;;;;;15.20;5.00;;;;;;;11.54;98.65;99859.05;106062;1284;72299;-74
2022/10/26 02:50:07;;;;;;;11.80;4.90;;;;;;;11.54;98.53;99862.72;105947;1292;59268;-73
2022/10/26 02:53:10;;;;;;;13.00;5.70;;;;;;;11.56;98.55;99866.09;106059;1292;61338;-74
2022/10/26 02:56:06;;;;;;;14.00;5.70;;;;;;;11.56;98.56;99864.16;106066;1289;71970;-75
2022/10/26 02:59:01;;;;;;;13.00;4.10;;;;;;;11.55;98.27;99869.27;105971;1288;66217;-73
2022/10/26 03:01:51;;;;;;;14.70;4.50;;;;;;;11.55;98.33;99870.30;105887;1291;73455;-74
2022/10/26 03:04:39;;;;;;;11.70;5.10;;;;;;;11.55;98.54;99861.91;105952;1291;57637;-73
2022/10/26 03:07:26;;;;;;;11.80;5.30;;;;;;;11.54;98.53;99861.63;105943;1287;61142;-73
2022/10/26 03:10:15;;;;;;;16.30;5.60;;;;;;;11.52;98.51;99862.39;106089;1288;70885;-73
2022/10/26 03:13:03;;;;;;;14.40;5.80;;;;;;;11.51;98.66;99863.71;106076;1289;68613;-74
2022/10/26 03:15:56;;;;;;;12.30;5.50;;;;;;;11.52;98.47;99871.64;106041;1289;72299;-74
2022/10/26 03:18:44;;;;;;;13.50;5.60;;;;;;;11.50;98.45;99876.55;106041;1296;59517;-74
2022/10/26 03:21:33;;;;;;;17.30;6.00;;;;;;;11.49;98.56;99875.98;105680;1292;60278;-74
2022/10/26 03:24:31;;;;;;;24.80;6.30;;;;;;;11.49;98.60;99878.07;106094;1292;73658;-75
2022/10/26 03:27:20;;;;;;;14.30;6.20;;;;;;;11.47;98.53;99877.53;105785;1293;66244;-75
2022/10/26 03:30:09;;;;;;;15.70;5.90;;;;;;;11.45;98.34;99882.49;105749;1297;73464;-74
2022/10/26 03:32:56;;;;;;;14.00;5.90;;;;;;;11.45;98.54;99883.46;106048;1288;59762;-74
2022/10/26 03:35:44;;;;;;;13.20;5.70;;;;;;;11.45;98.41;99885.93;106105;1287;58761;-75
2022/10/26 03:38:32;;;;;;;11.80;5.00;;;;;;;11.44;98.59;99891.64;106092;1292;71998;-74
2022/10/26 03:41:20;;;;;;;11.90;5.50;;;;;;;11.41;98.56;99886.02;106076;1289;68641;-75
2022/10/26 03:44:08;;;;;;;13.20;6.10;;;;;;;11.37;98.83;99889.39;106041;1284;73584;-74
2022/10/26 03:46:56;;;;;;;15.40;5.60;;;;;;;11.36;98.86;99891.80;106065;1292;60027;-75
2022/10/26 03:49:43;;;;;;;13.50;5.40;;;;;;;11.34;98.88;99887.66;106080;1289;60254;-73
2022/10/26 03:52:31;;;;;;;16.40;5.40;;;;;;;11.31;98.76;99887.95;106046;1285;73139;-74
2022/10/26 03:55:19;;;;;;;15.50;5.40;;;;;;;11.30;98.56;99891.23;106076;1288;68728;-75
2022/10/26 03:58:07;;;;;;;12.30;4.60;;;;;;;11.31;98.62;99895.73;106060;1292;70131;-75
2022/10/26 04:00:55;;;;;;;20.20;6.80;;;;;;;11.30;99.01;99896.70;106024;1292;59573;-76
2022/10/26 04:03:43;;;;;;;15.20;6.40;;;;;;;11.30;98.93;99901.85;106014;1294;60059;-74
2022/10/26 04:06:31;;;;;;;13.90;6.00;;;;;;;11.31;98.85;99907.85;106043;1281;73724;-76
2022/10/26 04:09:18;;;;;;;14.40;6.80;;;;;;;11.28;99.08;99909.90;106049;1291;66651;-75
2022/10/26 04:12:06;;;;;;;18.30;6.40;;;;;;;11.24;99.44;99911.41;106033;1287;73501;-75
2022/10/26 04:14:56;;;;;;;15.60;5.50;;;;;;;11.21;98.99;99916.63;106048;1294;60441;-76
2022/10/26 04:17:44;;;;;;;13.00;4.60;;;;;;;11.19;99.10;99914.17;105833;1287;142723;-74
2022/10/26 04:20:35;;;;;;;12.80;5.00;;;;;;;11.17;98.64;99910.23;105913;1291;71421;-75
2022/10/26 04:23:23;;;;;;;11.70;4.80;;;;;;;11.16;98.52;99912.05;106050;1289;66357;-74
2022/10/26 04:26:11;;;;;;;12.10;4.00;;;;;;;11.16;98.55;99903.60;106035;1291;72807;-75
2022/10/26 04:28:59;;;;;;;13.20;4.70;;;;;;;11.15;98.34;99899.39;106038;1289;60590;-75
2022/10/26 04:31:47;;;;;;;16.10;5.00;;;;;;;11.14;98.36;99900.16;106049;1281;61145;-76
2022/10/26 04:34:35;;;;;;;15.20;4.80;;;;;;;11.12;98.13;99904.08;106079;1282;71977;-75
2022/10/26 04:37:22;;;;;;;12.20;5.30;;;;;;;11.05;98.38;99901.97;106121;1288;66508;-75
2022/10/26 04:40:11;;;;;;;15.70;5.70;;;;;;;10.97;98.72;99905.65;106045;1288;71299;-74
2022/10/26 04:42:59;;;;;;;15.60;5.40;;;;;;;10.89;98.95;99907.05;105978;1292;59567;-75
2022/10/26 04:45:46;;;;;;;11.50;4.90;;;;;;;10.81;99.64;99909.92;105918;1290;61260;-73
2022/10/26 04:48:34;;;;;;;13.60;5.50;;;;;;;10.72;99.72;99915.96;106070;1284;71835;-75
2022/10/26 04:51:22;;;;;;;13.90;5.30;;;;;;;10.65;99.80;99912.36;106101;1291;66195;-75
2022/10/26 04:54:10;;;;;;;12.40;5.20;;;;;;;10.58;100.00;99912.33;106091;1289;71803;-75
2022/10/26 04:56:58;;;;;;;12.00;4.80;;;;;;;10.52;100.00;99906.81;106085;1289;59495;-75
2022/10/26 04:59:46;;;;;;;18.80;5.80;;;;;;;10.45;100.00;99905.92;106102;1288;61187;-74
2022/10/26 05:02:34;;;;;;;11.20;4.60;;;;;;;10.39;100.00;99910.13;106096;1289;72161;-76
2022/10/26 05:05:21;;;;;;;16.80;5.90;;;;;;;10.34;100.00;99909.08;106057;1288;68623;-74
2022/10/26 05:08:09;;;;;;;11.80;5.70;;;;;;;10.28;100.00;99911.13;106062;1287;72359;-75
2022/10/26 05:10:57;;;;;;;15.80;5.60;;;;;;;10.23;100.00;99907.23;106051;1289;59383;-76
2022/10/26 05:13:47;;;;;;;13.00;6.00;;;;;;;10.19;100.00;99902.98;106056;1289;61153;-76
2022/10/26 05:16:35;;;;;;;12.20;5.40;;;;;;;10.14;100.00;99904.05;106033;1289;73011;-77
2022/10/26 05:19:23;;;;;;;11.30;5.20;;;;;;;10.11;100.00;99897.27;106052;1287;67560;-77
2022/10/26 05:22:11;;;;;;;14.60;5.70;;;;;;;10.07;100.00;99901.92;106062;1288;72390;-76
2022/10/26 05:24:58;;;;;;;13.70;6.20;;;;;;;10.03;100.00;99900.51;106071;1289;59297;-75
2022/10/26 05:27:46;;;;;;;16.80;6.40;;;;;;;9.99;100.00;99903.65;106072;1289;61112;-75
2022/10/26 05:30:34;;;;;;;16.50;6.80;;;;;;;9.95;100.00;99909.27;106076;1286;70704;-75
2022/10/26 05:33:22;;;;;;;12.70;5.80;;;;;;;9.93;100.00;99917.59;105934;1290;68666;-75
2022/10/26 05:36:10;;;;;;;16.20;6.10;;;;;;;9.91;100.00;99919.34;106020;1289;73928;-75
2022/10/26 05:38:58;;;;;;;14.60;5.80;;;;;;;9.90;100.00;99918.55;106055;1288;59899;-75
2022/10/26 05:41:46;;;;;;;10.70;5.60;;;;;;;9.87;100.00;99924.01;106097;1287;61160;-76
2022/10/26 05:44:34;;;;;;;14.00;5.80;;;;;;;9.86;100.00;99926.39;106098;1294;70573;-75
2022/10/26 05:47:22;;;;;;;14.00;7.00;;;;;;;9.85;100.00;99943.86;106084;1288;67630;-75
2022/10/26 05:50:12;;;;;;;20.40;9.40;;;;;;;9.87;100.00;99943.38;106069;1288;72320;-76
2022/10/26 05:53:00;;;;;;;17.60;8.40;;;;;;;9.92;100.00;99945.12;106133;1288;58270;-75
2022/10/26 05:55:48;;;;;;;16.10;6.80;;;;;;;9.99;100.00;99943.16;105988;1292;60438;-76
2022/10/26 05:58:38;;;;;;;13.90;6.80;;;;;;;10.07;100.00;99941.52;106112;1289;73060;-76
2022/10/26 06:02:08;;;;;;;23.20;10.50;;;;;;;10.13;100.00;99940.83;106065;1295;68914;-76
2022/10/26 06:05:03;;;;;;;15.70;6.60;;;;;;;10.23;100.00;99945.02;106100;1297;73869;-76
2022/10/26 06:07:51;;;;;;;15.60;6.30;;;;;;;10.30;100.00;99949.65;106022;1291;59487;-76
2022/10/26 06:10:40;;;;;;;19.50;7.80;;;;;;;10.39;100.00;99951.42;105931;1286;61421;-75
2022/10/26 06:13:28;;;;;;;13.70;5.70;;;;;;;10.49;100.00;99947.64;106055;1295;70891;-74
2022/10/26 06:16:34;;;;;;;13.00;6.70;;;;;;;10.57;100.00;99949.88;106047;1290;68887;-75
2022/10/26 06:19:35;;;;;;;19.60;8.00;;;;;;;10.68;100.00;99950.61;106078;1294;70986;-77
2022/10/26 06:22:52;;;;;;;18.80;7.60;;;;;;;10.74;100.00;99950.79;106028;1289;58301;-75
2022/10/26 06:26:03;;;;;;;15.20;6.60;;;;;;;10.79;100.00;99959.14;106111;1289;61333;-75
2022/10/26 06:29:10;;;;;;;13.60;6.10;;;;;;;10.84;100.00;99965.64;106112;1289;73223;-75
2022/10/26 06:31:58;;;;;;;14.20;6.20;;;;;;;10.87;99.96;99965.39;106108;1288;68769;-76
2022/10/26 06:34:48;;;;;;;15.80;6.60;;;;;;;10.91;99.77;99966.66;106089;1287;72335;-76
2022/10/26 06:37:37;;;;;;;16.70;6.40;;;;;;;10.92;99.59;99965.70;105920;1290;60807;-77
2022/10/26 06:40:25;;;;;;;15.70;6.70;;;;;;;10.95;99.18;99967.77;106064;1284;61196;-76
2022/10/26 06:43:31;;;;;;;16.40;5.80;;;;;;;10.98;98.98;99970.35;106071;1287;72169;-75
2022/10/26 06:47:19;;;;;;;11.10;5.10;;;;;;;11.04;98.59;99974.09;105947;1292;66685;-76
2022/10/26 06:50:37;;;;;;;14.30;5.70;;;;;;;11.07;97.88;99977.83;106038;1287;71493;-76
2022/10/26 06:53:45;;;;;;;14.60;5.60;;;;;;;11.08;97.71;99981.47;106040;1289;58568;-74
2022/10/26 06:56:33;;;;;;;15.00;5.20;;;;;;;11.14;97.73;99987.88;106073;1282;61403;-77
2022/10/26 06:59:31;;;;;;;14.30;4.80;;;;;;;11.22;97.22;99991.65;105966;1288;72281;-75
2022/10/26 07:02:20;;;;;;;14.40;5.10;;;;;;;11.34;96.96;99993.41;106077;1286;69038;-75
2022/10/26 07:05:11;;;;;;;10.30;4.20;;;;;;;11.47;96.01;99998.57;106073;1287;72705;-75
2022/10/26 07:07:59;;;;;;;11.00;4.40;;;;;;;11.61;95.55;100000.56;106063;1290;60794;-75
2022/10/26 07:10:47;;;;;;;11.10;4.00;;;;;;;11.85;94.62;100004.26;106078;1289;60533;-74
2022/10/26 07:13:35;;;;;;;17.10;6.00;;;;;;;12.47;92.80;100000.44;106093;1295;70823;-74
2022/10/26 07:16:23;;;;;;;12.90;3.90;;;;;;;14.10;86.52;99996.01;106094;1295;67348;-75
2022/10/26 07:19:11;;;;;;;11.20;3.60;;;;;;;15.57;80.29;99993.00;106078;1295;73851;-76
2022/10/26 07:22:00;;;;;;;14.30;3.90;;;;;;;16.12;72.88;99992.69;106125;1288;56873;-76
2022/10/26 07:24:49;;;;;;;10.70;3.20;;;;;;;17.09;70.46;99994.71;106023;1295;60080;-76
2022/10/26 07:27:37;;;;;;;11.70;3.80;;;;;;;18.24;66.91;99997.95;106024;1292;70577;-76
2022/10/26 07:30:27;;;;;;;12.30;3.50;;;;;;;18.84;63.60;99996.54;106129;1283;68655;-76
2022/10/26 07:33:15;;;;;;;17.00;3.60;;;;;;;18.54;62.20;100009.08;106044;1288;73394;-76
2022/10/26 07:36:03;;;;;;;20.20;3.40;;;;;;;18.54;61.54;100012.18;106159;1287;56834;-76
2022/10/26 07:38:52;;;;;;;9.90;3.10;;;;;;;18.64;61.79;100014.81;106143;1289;60424;-76
2022/10/26 07:41:40;;;;;;;11.70;3.10;;;;;;;19.21;59.64;100013.80;106155;1281;71921;-76
2022/10/26 07:44:28;;;;;;;12.00;3.20;;;;;;;19.91;57.91;100017.78;106152;1289;68564;-76
2022/10/26 07:47:16;;;;;;;13.20;3.30;;;;;;;20.92;55.65;100018.46;106164;1289;70979;-76
2022/10/26 07:50:04;;;;;;;10.50;3.00;;;;;;;21.83;51.86;100014.02;106034;1289;56747;-78
2022/10/26 07:52:53;;;;;;;11.50;2.80;;;;;;;22.38;49.72;100019.81;106149;1281;61389;-75
2022/10/26 07:55:40;;;;;;;8.30;2.80;;;;;;;22.93;46.95;100013.71;105987;1290;70650;-76
2022/10/26 07:58:30;;;;;;;8.90;2.90;;;;;;;23.68;46.17;100013.98;106044;1292;68725;-75
2022/10/26 08:01:18;;;;;;;9.00;2.40;;;;;;;24.41;43.54;100020.23;106143;1296;73502;-77
2022/10/26 08:04:06;;;;;;;11.60;2.40;;;;;;;24.78;41.82;100028.69;106127;1289;57714;-75
2022/10/26 08:06:54;;;;;;;16.00;2.90;;;;;;;25.05;41.09;100030.73;106134;1289;61278;-75
2022/10/26 08:09:42;;;;;;;11.10;2.50;;;;;;;25.50;40.68;100029.70;106159;1295;71079;-76
2022/10/26 08:12:29;;;;;;;9.10;2.50;;;;;;;25.20;40.50;100032.09;106144;1287;66967;-76
2022/10/26 08:15:17;;;;;;;10.10;2.50;;;;;;;24.69;41.28;100033.23;106122;1273;72681;-75
2022/10/26 08:18:05;;;;;;;9.70;2.70;;;;;;;23.86;41.89;100030.73;106143;1289;58734;-76
2022/10/26 08:20:53;;;;;;;10.90;2.80;;;;;;;23.67;42.57;100031.31;106125;1287;61601;-76
2022/10/26 08:23:56;;;;;;;8.60;2.80;;;;;;;22.90;44.00;100032.91;106132;1288;73432;-76
2022/10/26 08:26:44;;;;;;;8.70;2.50;;;;;;;21.92;45.90;100039.80;106145;1288;67548;-77
2022/10/26 08:29:32;;;;;;;8.10;2.50;;;;;;;21.32;47.75;100043.06;106115;1278;71900;-75
2022/10/26 08:32:20;;;;;;;10.30;2.40;;;;;;;20.70;49.26;100052.86;106097;1296;57966;-76
2022/10/26 08:35:08;;;;;;;9.90;2.70;;;;;;;20.01;51.17;100055.09;106139;1288;60248;-76
2022/10/26 08:37:59;;;;;;;8.40;2.80;;;;;;;19.26;53.33;100048.83;106120;1286;72333;-75
2022/10/26 08:40:47;;;;;;;11.00;2.70;;;;;;;18.48;55.83;100053.78;106141;1289;68849;-76
2022/10/26 08:43:53;;;;;;;10.50;3.20;;;;;;;18.18;57.66;100056.52;106124;1289;73911;-74
2022/10/26 08:46:52;;;;;;;7.60;2.60;;;;;;;17.82;58.74;100059.20;106144;1291;57059;-76
2022/10/26 08:49:57;;;;;;;8.90;3.10;;;;;;;17.85;59.64;100057.44;106040;1288;60174;-76
2022/10/26 08:52:54;;;;;;;10.80;6.90;;;;;;;18.50;58.23;100062.14;106092;1287;72228;-76
2022/10/26 08:56:00;;;;;;;12.10;3.50;;;;;;;18.84;56.87;100061.27;105888;1292;67898;-75
2022/10/26 08:59:27;;;;;;;13.10;3.40;;;;;;;18.95;56.49;100059.97;106060;1288;72501;-76
2022/10/26 09:02:16;;;;;;;13.70;3.20;;;;;;;19.00;56.73;100062.60;106056;1289;57691;-74
2022/10/26 09:05:15;;;;;;;9.60;3.20;;;;;;;18.86;56.61;100065.20;105942;1289;58787;-77
2022/10/26 09:08:29;;;;;;;7.90;3.20;;;;;;;18.40;57.38;100063.42;105894;1289;72285;-76
2022/10/26 09:11:38;;;;;;;11.00;4.30;;;;;;;18.21;58.19;100067.73;106052;1288;65758;-75
2022/10/26 09:15:09;;;;;;;10.60;3.40;;;;;;;17.73;59.33;100068.80;106096;1289;71370;-75
2022/10/26 09:18:35;;;;;;;10.10;3.60;;;;;;;17.55;60.49;100072.27;106085;1289;59003;-76
2022/10/26 09:22:10;;;;;;;11.70;3.70;;;;;;;17.40;61.36;100077.82;105998;1296;60024;-74
2022/10/26 09:25:15;;;;;;;11.40;3.70;;;;;;;17.29;62.04;100078.09;105452;1297;71086;-75
2022/10/26 09:28:03;;;;;;;12.40;3.70;;;;;;;18.11;60.28;100076.88;105367;1304;66896;-75
2022/10/26 09:30:51;;;;;;;10.10;3.70;;;;;;;18.38;58.92;100078.22;105410;1299;72344;-76
2022/10/26 09:33:39;;;;;;;10.40;3.40;;;;;;;18.20;58.41;100077.02;105403;1298;56955;-75
2022/10/26 09:36:27;;;;;;;12.00;3.30;;;;;;;17.80;59.17;100074.67;105302;1298;58852;-77
2022/10/26 09:39:30;;;;;;;10.20;3.50;;;;;;;17.47;60.43;100077.46;105394;1296;73062;-77
2022/10/26 09:42:27;;;;;;;11.70;3.40;;;;;;;18.16;59.18;100075.64;105286;1301;68692;-75
2022/10/26 09:45:26;;;;;;;11.30;2.90;;;;;;;18.43;57.93;100076.63;105381;1299;73638;-75
2022/10/26 09:48:26;;;;;;;11.60;3.00;;;;;;;17.84;58.50;100080.33;105284;1300;57736;-75
2022/10/26 09:51:16;;;;;;;9.40;2.90;;;;;;;17.46;59.50;100087.75;105395;1299;61239;-76
2022/10/26 09:54:16;;;;;;;9.20;2.50;;;;;;;17.92;59.04;100084.65;105392;1299;71954;-77
2022/10/26 09:57:03;;;;;;;8.10;2.90;;;;;;;18.57;55.74;100080.25;105387;1300;66586;-76
2022/10/26 09:59:54;;;;;;;9.20;2.40;;;;;;;18.47;55.78;100087.27;105455;1304;73662;-75
2022/10/26 10:02:47;;;;;;;10.30;2.40;;;;;;;17.80;56.69;100094.64;106047;1296;57808;-76
2022/10/26 10:05:36;;;;;;;7.80;2.40;;;;;;;17.33;57.98;100096.38;105963;1289;59208;-76
2022/10/26 10:08:39;;;;;;;8.30;2.10;;;;;;;16.89;59.34;100110.41;106038;1289;70414;-76
2022/10/26 10:11:42;;;;;;;6.90;2.60;;;;;;;16.52;60.49;100108.22;106117;1289;67259;-77
2022/10/26 10:14:53;;;;;;;10.40;2.60;;;;;;;16.36;61.56;100106.42;105976;1290;73825;-73
2022/10/26 10:17:46;;;;;;;8.10;3.00;;;;;;;16.96;61.38;100105.13;106064;1289;58049;-73
2022/10/26 10:20:39;;;;;;;8.70;2.70;;;;;;;17.06;59.33;100111.85;106051;1291;60047;-76
2022/10/26 10:23:36;;;;;;;8.80;2.80;;;;;;;16.61;60.27;100116.77;106106;1281;73295;-76
2022/10/26 10:26:24;;;;;;;9.60;3.30;;;;;;;16.26;61.45;100116.67;106028;1289;66237;-76
2022/10/26 10:29:15;;;;;;;9.40;2.70;;;;;;;16.29;61.91;100116.84;106104;1289;70946;-76
2022/10/26 10:32:03;;;;;;;10.80;2.40;;;;;;;16.08;62.08;100117.80;105982;1291;57719;-75
2022/10/26 10:34:54;;;;;;;9.10;2.50;;;;;;;16.14;61.56;100117.61;106080;1289;59404;-77
2022/10/26 10:37:44;;;;;;;10.40;2.60;;;;;;;15.82;62.47;100117.05;105953;1290;72126;-73
2022/10/26 10:40:32;;;;;;;9.50;2.80;;;;;;;15.50;63.45;100123.00;106039;1292;66162;-74
2022/10/26 10:43:21;;;;;;;8.50;2.30;;;;;;;15.27;64.46;100125.01;106082;1281;73680;-75
2022/10/26 10:46:17;;;;;;;13.50;2.30;;;;;;;15.26;64.83;100126.53;106079;1289;58776;-75
2022/10/26 10:49:26;;;;;;;10.50;2.70;;;;;;;15.34;64.76;100128.48;106022;1289;58782;-76
2022/10/26 10:52:27;;;;;;;7.90;2.90;;;;;;;15.30;65.07;100125.95;105999;1292;73291;-76
2022/10/26 10:55:21;;;;;;;8.50;2.80;;;;;;;15.14;65.33;100129.90;105940;1289;67581;-75
2022/10/26 10:58:16;;;;;;;8.90;2.40;;;;;;;15.07;65.44;100133.76;105977;1293;72508;-75
2022/10/26 11:01:11;;;;;;;9.20;2.80;;;;;;;15.05;66.06;100134.10;106097;1289;58229;-76
2022/10/26 11:04:19;;;;;;;11.80;3.30;;;;;;;15.00;66.28;100137.08;106016;1288;58668;-75
2022/10/26 11:07:08;;;;;;;10.40;2.40;;;;;;;14.94;66.49;100143.52;106043;1288;70576;-75
2022/10/26 11:10:02;;;;;;;7.50;2.30;;;;;;;14.97;66.71;100140.78;105934;1293;68823;-76
2022/10/26 11:12:58;;;;;;;8.10;2.20;;;;;;;15.12;66.43;100145.64;106064;1289;72350;-76
2022/10/26 11:15:51;;;;;;;7.50;2.40;;;;;;;15.39;65.52;100146.46;106097;1285;57659;-75
2022/10/26 11:18:55;;;;;;;10.20;2.40;;;;;;;15.53;64.67;100147.52;106028;1274;62007;-75
2022/10/26 11:21:49;;;;;;;7.90;2.20;;;;;;;15.81;64.05;100151.83;106015;1289;72166;-76
2022/10/26 11:25:01;;;;;;;7.10;2.00;;;;;;;16.07;62.93;100154.63;106008;1288;68948;-76
2022/10/26 11:28:00;;;;;;;8.40;2.30;;;;;;;15.83;63.12;100158.58;105856;1295;71058;-76
2022/10/26 11:30:56;;;;;;;10.40;2.50;;;;;;;15.58;63.56;100160.34;106093;1288;58115;-75
2022/10/26 11:34:27;;;;;;;9.40;2.50;;;;;;;15.42;64.62;100167.09;106026;1290;60169;-76
2022/10/26 11:37:56;;;;;;;9.70;2.60;;;;;;;15.29;65.25;100173.80;106059;1289;73251;-76
2022/10/26 11:41:10;;;;;;;8.50;2.20;;;;;;;15.16;65.92;100172.73;106143;1289;66997;-76
2022/10/26 11:44:35;;;;;;;7.90;2.10;;;;;;;15.07;66.17;100175.52;106037;1289;73472;-76
2022/10/26 11:47:41;;;;;;;8.10;2.50;;;;;;;14.99;66.10;100181.08;106033;1292;57669;-75
2022/10/26 11:50:38;;;;;;;12.00;2.60;;;;;;;15.03;66.40;100180.05;106022;1282;60322;-76
2022/10/26 11:53:39;;;;;;;9.30;2.30;;;;;;;15.34;65.58;100181.01;105993;1287;73313;-75
2022/10/26 11:56:38;;;;;;;7.80;2.10;;;;;;;15.84;63.59;100177.97;105985;1289;68647;-77
2022/10/26 11:59:31;;;;;;;7.50;2.40;;;;;;;16.31;62.18;100175.55;106027;1296;70975;-76
2022/10/26 12:02:24;;;;;;;7.60;2.40;;;;;;;16.19;62.20;100178.67;106003;1292;57881;-76
2022/10/26 12:05:20;;;;;;;6.60;2.30;;;;;;;15.92;62.93;100181.91;106002;1292;60672;-76
2022/10/26 12:08:27;;;;;;;9.40;2.70;;;;;;;15.58;63.70;100183.77;106130;1281;73002;-76
2022/10/26 12:11:37;;;;;;;9.00;2.30;;;;;;;15.26;65.11;100183.93;106041;1281;67624;-77
2022/10/26 12:14:41;;;;;;;8.10;2.50;;;;;;;15.11;66.09;100184.61;106107;1281;72500;-76
2022/10/26 12:17:35;;;;;;;7.10;2.10;;;;;;;15.02;66.61;100184.94;106027;1288;57643;-77
2022/10/26 12:20:53;;;;;;;8.60;2.30;;;;;;;14.91;67.17;100188.64;106026;1289;60266;-76
2022/10/26 12:24:00;;;;;;;10.70;2.70;;;;;;;14.79;67.78;100190.46;106108;1281;71968;-76
2022/10/26 12:27:17;;;;;;;10.80;2.80;;;;;;;14.76;68.44;100189.52;106088;1288;67904;-77
2022/10/26 12:30:16;;;;;;;6.70;2.30;;;;;;;15.09;68.44;100186.95;106093;1288;73974;-77
2022/10/26 12:33:29;;;;;;;9.30;2.60;;;;;;;15.33;67.04;100186.42;106117;1289;57999;-75
2022/10/26 12:36:53;;;;;;;8.50;2.30;;;;;;;15.40;66.74;100190.50;106121;1288;60073;-75
2022/10/26 12:39:43;;;;;;;8.80;2.10;;;;;;;15.38;66.40;100189.63;106109;1288;72157;-75
2022/10/26 12:42:40;;;;;;;7.70;2.00;;;;;;;15.34;66.18;100189.75;106099;1289;67497;-75
2022/10/26 12:45:28;;;;;;;8.40;2.10;;;;;;;15.34;66.35;100189.44;106129;1289;72604;-75
2022/10/26 12:48:24;;;;;;;7.90;2.10;;;;;;;15.34;66.57;100188.34;106100;1281;58967;-76
2022/10/26 12:51:25;;;;;;;9.50;2.50;;;;;;;15.26;66.40;100188.96;106124;1281;61180;-77
2022/10/26 12:54:44;;;;;;;7.80;2.40;;;;;;;15.20;66.99;100182.69;106127;1290;71934;-77
2022/10/26 12:57:57;;;;;;;8.70;2.50;;;;;;;15.27;67.02;100181.48;106121;1289;68870;-76
2022/10/26 13:01:23;;;;;;;17.90;3.20;;;;;;;15.20;67.00;100186.23;106125;1281;72583;-76
2022/10/26 13:04:35;;;;;;;21.50;2.90;;;;;;;15.16;67.36;100190.60;106074;1289;58751;-75
2022/10/26 13:07:25;;;;;;;8.80;2.50;;;;;;;15.41;67.10;100193.56;106135;1281;61245;-75
2022/10/26 13:10:13;;;;;;;8.00;2.30;;;;;;;15.53;66.33;100192.84;106128;1281;71023;-75
2022/10/26 13:13:04;;;;;;;8.60;2.20;;;;;;;15.50;66.16;100193.91;106125;1289;67655;-76
2022/10/26 13:15:55;;;;;;;9.40;1.70;;;;;;;15.47;66.20;100198.67;105964;1292;73855;-76
2022/10/26 13:18:47;;;;;;;11.80;2.10;;;;;;;15.49;65.74;100200.10;106088;1288;58891;-75
2022/10/26 13:21:46;;;;;;;7.50;1.80;;;;;;;15.44;65.50;100202.91;105951;1281;60021;-75
2022/10/26 13:24:34;;;;;;;8.00;1.70;;;;;;;15.36;65.65;100205.33;105242;1284;1002007;-76